Time;durP1;ratioP1;P1;durP2;ratioP2;P2;SDS_P1;SDS_P2;PMS_P1;PMS_P2;Temp;Humidity;BMP_temperature;BMP_pressure;BME280_temperature;BME280_humidity;BME280_pressure;Samples;Min_cycle;Max_cycle;Signal;HPM_P1;HPM_P2
2022/01/01 00:02:49;;;;;;;22.17;14.03;;;;;;;;;;6222014;28;20311;-65
2022/01/01 00:06:11;;;;;;;17.00;12.27;;;;;;;;;;6221407;28;20232;-66
2022/01/01 00:09:32;;;;;;;18.50;11.27;;;;;;;;;;6229149;28;20962;-67
2022/01/01 00:12:53;;;;;;;22.40;15.83;;;;;;;;;;6226624;28;20512;-66
2022/01/01 00:16:13;;;;;;;29.67;22.90;;;;;;;;;;6231382;28;20286;-66
2022/01/01 00:19:34;;;;;;;31.10;24.80;;;;;;;;;;6232008;28;22054;-66
2022/01/01 00:22:56;;;;;;;79.00;71.57;;;;;;;;;;6247271;28;20240;-66
2022/01/01 00:26:16;;;;;;;18.97;12.10;;;;;;;;;;6232131;28;20236;-66
2022/01/01 00:29:37;;;;;;;16.83;12.27;;;;;;;;;;6227713;28;20225;-66
2022/01/01 00:32:58;;;;;;;21.63;12.57;;;;;;;;;;6223654;28;20244;-66
2022/01/01 00:36:18;;;;;;;22.60;12.80;;;;;;;;;;6229509;28;20232;-66
2022/01/01 00:39:40;;;;;;;20.83;13.03;;;;;;;;;;6231160;28;20233;-67
2022/01/01 00:43:01;;;;;;;21.63;13.97;;;;;;;;;;6229836;28;20232;-66
2022/01/01 00:46:22;;;;;;;18.53;12.07;;;;;;;;;;6229446;28;20231;-67
2022/01/01 00:49:42;;;;;;;18.50;10.43;;;;;;;;;;6250546;28;20220;-67
2022/01/01 00:53:03;;;;;;;14.23;9.47;;;;;;;;;;6257062;28;20298;-66
2022/01/01 00:56:26;;;;;;;17.63;9.50;;;;;;;;;;6226394;28;20224;-66
2022/01/01 00:59:47;;;;;;;19.43;10.07;;;;;;;;;;6219519;28;20236;-65
2022/01/01 01:03:08;;;;;;;21.10;10.50;;;;;;;;;;6221755;28;21038;-66
2022/01/01 01:06:28;;;;;;;17.07;9.07;;;;;;;;;;6213302;28;20606;-65
2022/01/01 01:09:49;;;;;;;19.13;9.87;;;;;;;;;;6219608;28;20232;-66
2022/01/01 01:13:14;;;;;;;19.20;12.63;;;;;;;;;;6222378;28;20228;-65
2022/01/01 01:16:35;;;;;;;16.30;11.10;;;;;;;;;;6230643;28;20233;-65
2022/01/01 01:19:55;;;;;;;19.40;9.87;;;;;;;;;;6225042;28;20244;-66
2022/01/01 01:23:16;;;;;;;18.00;9.23;;;;;;;;;;6222950;28;20626;-65
2022/01/01 01:26:37;;;;;;;18.10;10.30;;;;;;;;;;6226519;28;20228;-66
2022/01/01 01:29:59;;;;;;;17.10;9.47;;;;;;;;;;6229730;28;20561;-65
2022/01/01 01:33:19;;;;;;;20.37;11.23;;;;;;;;;;6231681;28;20244;-65
2022/01/01 01:36:42;;;;;;;18.37;10.13;;;;;;;;;;6231253;28;20276;-65
2022/01/01 01:40:03;;;;;;;16.00;9.63;;;;;;;;;;6233581;28;20229;-65
2022/01/01 01:43:24;;;;;;;21.67;12.27;;;;;;;;;;6233527;28;20252;-65
2022/01/01 01:46:46;;;;;;;16.43;9.67;;;;;;;;;;6231653;28;20520;-66
2022/01/01 01:50:08;;;;;;;19.80;9.77;;;;;;;;;;6232334;28;20252;-65
2022/01/01 01:53:29;;;;;;;21.73;13.20;;;;;;;;;;6229980;28;20237;-66
2022/01/01 01:56:51;;;;;;;15.50;9.53;;;;;;;;;;6222417;28;20236;-65
2022/01/01 02:00:25;;;;;;;332.77;255.27;;;;;;;;;;6217672;28;20228;-64
2022/01/01 02:03:46;;;;;;;35.43;30.90;;;;;;;;;;6227885;28;20236;-65
2022/01/01 02:07:07;;;;;;;15.87;10.03;;;;;;;;;;6222822;28;20319;-65
2022/01/01 02:10:31;;;;;;;24.57;15.80;;;;;;;;;;6224807;28;20232;-66
2022/01/01 02:14:09;;;;;;;21.27;10.13;;;;;;;;;;6226439;28;20240;-65
2022/01/01 02:17:30;;;;;;;18.77;9.10;;;;;;;;;;6224991;28;20224;-66
2022/01/01 02:20:52;;;;;;;12.00;8.87;;;;;;;;;;6243493;28;20236;-65
2022/01/01 02:24:12;;;;;;;19.77;10.40;;;;;;;;;;6232972;28;20233;-66
2022/01/01 02:27:34;;;;;;;19.67;9.77;;;;;;;;;;6233988;28;20232;-64
2022/01/01 02:30:57;;;;;;;17.73;10.17;;;;;;;;;;6226278;28;20323;-65
2022/01/01 02:34:18;;;;;;;18.00;9.63;;;;;;;;;;6230709;28;20229;-65
2022/01/01 02:37:41;;;;;;;13.40;9.90;;;;;;;;;;6231650;28;20232;-66
2022/01/01 02:41:01;;;;;;;16.70;10.20;;;;;;;;;;6229217;28;20236;-66
2022/01/01 02:44:22;;;;;;;16.60;10.23;;;;;;;;;;6229537;28;20224;-66
2022/01/01 02:47:43;;;;;;;13.70;9.03;;;;;;;;;;6232520;28;20621;-65
2022/01/01 02:51:04;;;;;;;19.67;11.17;;;;;;;;;;6222298;28;20228;-66
2022/01/01 02:54:25;;;;;;;19.30;10.70;;;;;;;;;;6222244;28;20305;-65
2022/01/01 02:57:46;;;;;;;15.70;9.80;;;;;;;;;;6223512;28;20240;-64
2022/01/01 03:01:06;;;;;;;18.67;9.67;;;;;;;;;;6221077;28;20232;-65
2022/01/01 03:04:27;;;;;;;19.13;11.07;;;;;;;;;;6228511;28;20766;-65
2022/01/01 03:07:47;;;;;;;19.43;12.00;;;;;;;;;;6227490;28;20264;-65
2022/01/01 03:11:09;;;;;;;18.27;11.13;;;;;;;;;;6226772;28;20661;-66
2022/01/01 03:14:30;;;;;;;21.20;11.47;;;;;;;;;;6227620;28;20415;-65
2022/01/01 03:17:50;;;;;;;22.70;12.10;;;;;;;;;;6227583;28;20420;-65
2022/01/01 03:21:11;;;;;;;19.30;12.43;;;;;;;;;;6230287;28;20236;-64
2022/01/01 03:24:32;;;;;;;25.10;12.07;;;;;;;;;;6222091;28;20232;-65
2022/01/01 03:27:54;;;;;;;23.23;12.33;;;;;;;;;;6231121;28;20315;-65
2022/01/01 03:31:15;;;;;;;22.63;12.40;;;;;;;;;;6227396;28;20225;-65
2022/01/01 03:34:35;;;;;;;26.07;12.60;;;;;;;;;;6217887;28;20228;-65
2022/01/01 03:37:56;;;;;;;23.27;13.80;;;;;;;;;;6228691;28;20236;-66
2022/01/01 03:41:16;;;;;;;25.53;13.53;;;;;;;;;;6225905;28;20236;-65
2022/01/01 03:44:38;;;;;;;21.40;11.80;;;;;;;;;;6244279;28;20216;-66
2022/01/01 03:47:59;;;;;;;20.27;13.23;;;;;;;;;;6222381;28;21723;-65
2022/01/01 03:51:19;;;;;;;15.77;11.93;;;;;;;;;;6221876;28;20229;-66
2022/01/01 03:54:39;;;;;;;18.87;11.77;;;;;;;;;;6226892;28;20237;-65
2022/01/01 03:58:00;;;;;;;20.63;14.70;;;;;;;;;;6226899;28;20906;-66
2022/01/01 04:01:22;;;;;;;21.23;13.63;;;;;;;;;;6223183;28;20671;-65
2022/01/01 04:04:43;;;;;;;17.13;13.37;;;;;;;;;;6222070;28;20221;-65
2022/01/01 04:08:04;;;;;;;22.17;15.27;;;;;;;;;;6226518;28;20229;-66
2022/01/01 04:11:24;;;;;;;23.87;13.60;;;;;;;;;;6228058;28;20224;-66
2022/01/01 04:14:45;;;;;;;22.80;14.23;;;;;;;;;;6226785;28;20224;-65
2022/01/01 04:18:10;;;;;;;22.30;13.40;;;;;;;;;;6227323;28;20653;-65
2022/01/01 04:21:31;;;;;;;20.13;13.53;;;;;;;;;;6226374;28;20240;-66
2022/01/01 04:24:51;;;;;;;27.47;16.33;;;;;;;;;;6231681;28;20224;-65
2022/01/01 04:28:11;;;;;;;24.17;15.50;;;;;;;;;;6228181;28;20236;-65
2022/01/01 04:31:32;;;;;;;24.57;14.73;;;;;;;;;;6223384;28;20594;-65
2022/01/01 04:34:54;;;;;;;29.80;17.60;;;;;;;;;;6231598;28;20276;-65
2022/01/01 04:38:29;;;;;;;26.63;16.00;;;;;;;;;;6225718;28;20239;-64
2022/01/01 04:41:50;;;;;;;20.40;16.53;;;;;;;;;;6223218;28;20610;-65
2022/01/01 04:45:11;;;;;;;23.33;16.37;;;;;;;;;;6220154;28;20228;-65
2022/01/01 04:48:32;;;;;;;23.17;15.07;;;;;;;;;;6228833;28;20236;-66
2022/01/01 04:51:53;;;;;;;23.43;15.83;;;;;;;;;;6220980;28;20228;-65
2022/01/01 04:55:14;;;;;;;27.13;17.43;;;;;;;;;;6229147;28;20224;-66
2022/01/01 04:58:35;;;;;;;25.83;18.67;;;;;;;;;;6224333;28;20228;-64
2022/01/01 05:01:56;;;;;;;29.00;19.40;;;;;;;;;;6225896;28;20237;-65
2022/01/01 05:05:16;;;;;;;27.40;17.70;;;;;;;;;;6225991;28;20228;-65
2022/01/01 05:08:38;;;;;;;28.60;16.97;;;;;;;;;;6230522;28;20225;-65
2022/01/01 05:11:59;;;;;;;27.70;17.13;;;;;;;;;;6225705;28;20232;-65
2022/01/01 05:15:20;;;;;;;25.10;18.23;;;;;;;;;;6222869;28;20236;-65
2022/01/01 05:18:41;;;;;;;29.03;17.23;;;;;;;;;;6224048;28;20232;-65
2022/01/01 05:22:01;;;;;;;28.63;18.23;;;;;;;;;;6223597;28;20266;-65
2022/01/01 05:25:23;;;;;;;27.70;18.90;;;;;;;;;;6227093;28;20583;-65
2022/01/01 05:28:44;;;;;;;23.63;18.50;;;;;;;;;;6229605;28;20221;-65
2022/01/01 05:32:05;;;;;;;39.23;20.47;;;;;;;;;;6230658;28;20232;-65
2022/01/01 05:35:25;;;;;;;26.70;19.07;;;;;;;;;;6224406;28;20236;-65
2022/01/01 05:38:46;;;;;;;26.10;17.40;;;;;;;;;;6223675;28;20238;-66
2022/01/01 05:42:09;;;;;;;34.97;18.80;;;;;;;;;;6213979;28;20248;-66
2022/01/01 05:45:30;;;;;;;26.17;19.40;;;;;;;;;;6230095;28;20889;-65
2022/01/01 05:48:50;;;;;;;28.67;17.43;;;;;;;;;;6228782;28;20291;-65
2022/01/01 05:52:10;;;;;;;27.67;18.63;;;;;;;;;;6226426;28;20504;-65
2022/01/01 05:55:31;;;;;;;32.13;19.07;;;;;;;;;;6229564;28;20626;-65
2022/01/01 05:58:52;;;;;;;29.33;19.30;;;;;;;;;;6234098;28;20232;-65
2022/01/01 06:02:13;;;;;;;31.73;19.57;;;;;;;;;;6229762;28;20236;-65
2022/01/01 06:05:33;;;;;;;24.17;17.13;;;;;;;;;;6232618;28;20603;-66
2022/01/01 06:08:54;;;;;;;26.37;17.47;;;;;;;;;;6233369;28;20265;-66
2022/01/01 06:12:14;;;;;;;33.10;18.13;;;;;;;;;;6228089;28;20319;-66
2022/01/01 06:15:36;;;;;;;26.57;17.00;;;;;;;;;;6225582;28;20577;-65
2022/01/01 06:18:57;;;;;;;32.60;18.23;;;;;;;;;;6233319;28;20228;-65
2022/01/01 06:22:17;;;;;;;29.63;16.90;;;;;;;;;;6230001;28;20310;-65
2022/01/01 06:25:38;;;;;;;38.70;19.90;;;;;;;;;;6228270;28;20231;-66
2022/01/01 06:28:59;;;;;;;26.53;18.07;;;;;;;;;;6230421;28;20311;-65
2022/01/01 06:32:20;;;;;;;30.13;17.17;;;;;;;;;;6229122;28;20220;-65
2022/01/01 06:35:41;;;;;;;36.37;18.20;;;;;;;;;;6230917;28;20232;-65
2022/01/01 06:39:02;;;;;;;32.03;17.90;;;;;;;;;;6225729;28;20256;-65
2022/01/01 06:42:24;;;;;;;28.77;17.33;;;;;;;;;;6230613;28;20349;-65
2022/01/01 06:45:44;;;;;;;33.93;17.90;;;;;;;;;;6227364;28;20228;-66
2022/01/01 06:49:06;;;;;;;26.93;16.60;;;;;;;;;;6230753;28;20326;-65
2022/01/01 06:52:27;;;;;;;25.03;15.60;;;;;;;;;;6229256;28;20236;-65
2022/01/01 06:55:47;;;;;;;28.87;17.40;;;;;;;;;;6230709;28;20236;-64
2022/01/01 06:59:09;;;;;;;31.63;17.77;;;;;;;;;;6230564;28;20229;-65
2022/01/01 07:02:30;;;;;;;22.03;16.43;;;;;;;;;;6229030;28;20240;-65
2022/01/01 07:05:52;;;;;;;21.70;15.47;;;;;;;;;;6227241;28;20307;-65
2022/01/01 07:09:14;;;;;;;31.43;16.57;;;;;;;;;;6229192;28;20539;-64
2022/01/01 07:12:35;;;;;;;26.63;15.70;;;;;;;;;;6232123;28;20641;-65
2022/01/01 07:15:56;;;;;;;35.17;17.50;;;;;;;;;;6231525;28;20810;-65
2022/01/01 07:19:16;;;;;;;25.53;15.10;;;;;;;;;;6227507;28;20239;-65
2022/01/01 07:22:41;;;;;;;25.60;16.27;;;;;;;;;;6232338;28;20236;-65
2022/01/01 07:26:02;;;;;;;30.33;16.83;;;;;;;;;;6232405;28;20323;-65
2022/01/01 07:29:24;;;;;;;20.83;14.13;;;;;;;;;;6227199;28;20232;-65
2022/01/01 07:32:45;;;;;;;27.83;16.07;;;;;;;;;;6229676;28;20601;-65
2022/01/01 07:36:06;;;;;;;23.33;15.30;;;;;;;;;;6231365;28;20229;-65
2022/01/01 07:39:27;;;;;;;26.00;16.20;;;;;;;;;;6231539;28;20243;-65
2022/01/01 07:42:48;;;;;;;31.07;18.07;;;;;;;;;;6228192;28;20270;-65
2022/01/01 07:46:08;;;;;;;34.43;18.30;;;;;;;;;;6233208;28;20237;-65
2022/01/01 07:49:29;;;;;;;36.13;19.47;;;;;;;;;;6228669;28;20228;-64
2022/01/01 07:52:50;;;;;;;30.47;16.37;;;;;;;;;;6230961;28;20228;-65
2022/01/01 07:56:11;;;;;;;33.43;17.73;;;;;;;;;;6219131;28;20232;-65
2022/01/01 07:59:32;;;;;;;32.20;17.20;;;;;;;;;;6228973;28;20228;-65
2022/01/01 08:02:53;;;;;;;33.40;19.07;;;;;;;;;;6217290;28;20574;-65
2022/01/01 08:06:13;;;;;;;30.13;18.17;;;;;;;;;;6224046;28;20252;-64
2022/01/01 08:09:33;;;;;;;30.63;17.53;;;;;;;;;;6228431;28;20237;-64
2022/01/01 08:12:55;;;;;;;31.40;17.83;;;;;;;;;;6231200;28;20236;-65
2022/01/01 08:16:15;;;;;;;27.47;18.03;;;;;;;;;;6227636;28;20224;-66
2022/01/01 08:19:38;;;;;;;32.73;19.10;;;;;;;;;;6224925;28;20268;-65
2022/01/01 08:22:59;;;;;;;34.00;18.93;;;;;;;;;;6223226;28;20225;-64
2022/01/01 08:26:19;;;;;;;31.37;18.77;;;;;;;;;;6219900;28;20224;-65
2022/01/01 08:29:41;;;;;;;31.90;19.10;;;;;;;;;;6226909;28;20283;-65
2022/01/01 08:33:02;;;;;;;33.07;21.33;;;;;;;;;;6244393;28;20629;-65
2022/01/01 08:36:23;;;;;;;35.30;20.60;;;;;;;;;;6220429;28;20228;-64
2022/01/01 08:39:44;;;;;;;34.10;18.60;;;;;;;;;;6220768;28;20536;-65
2022/01/01 08:43:04;;;;;;;42.00;23.00;;;;;;;;;;6223155;28;20319;-63
2022/01/01 08:46:26;;;;;;;40.30;21.50;;;;;;;;;;6219830;28;20232;-65
2022/01/01 08:49:47;;;;;;;43.23;24.80;;;;;;;;;;6225816;28;20235;-65
2022/01/01 08:53:07;;;;;;;44.53;22.40;;;;;;;;;;6228117;28;20233;-66
2022/01/01 08:56:28;;;;;;;40.97;23.13;;;;;;;;;;6226016;28;20523;-64
2022/01/01 08:59:48;;;;;;;36.30;22.47;;;;;;;;;;6224843;28;20247;-66
2022/01/01 09:03:10;;;;;;;38.53;24.63;;;;;;;;;;6215388;28;20233;-64
2022/01/01 09:06:31;;;;;;;33.07;22.53;;;;;;;;;;6210491;28;20232;-64
2022/01/01 09:09:52;;;;;;;48.97;26.10;;;;;;;;;;6228937;28;20256;-65
2022/01/01 09:13:12;;;;;;;37.90;25.30;;;;;;;;;;6231769;28;20225;-65
2022/01/01 09:16:33;;;;;;;41.70;25.67;;;;;;;;;;6226792;28;20677;-65
2022/01/01 09:19:55;;;;;;;50.80;28.57;;;;;;;;;;6243661;28;20240;-65
2022/01/01 09:23:16;;;;;;;44.77;28.40;;;;;;;;;;6229672;28;20626;-65
2022/01/01 09:26:36;;;;;;;40.67;26.83;;;;;;;;;;6226513;28;20228;-66
2022/01/01 09:29:57;;;;;;;45.13;27.90;;;;;;;;;;6211906;28;20882;-65
2022/01/01 09:33:17;;;;;;;43.30;27.83;;;;;;;;;;6219121;28;20621;-64
2022/01/01 09:36:39;;;;;;;49.27;32.07;;;;;;;;;;6224420;28;20311;-64
2022/01/01 09:40:00;;;;;;;52.33;30.90;;;;;;;;;;6227645;28;20236;-64
2022/01/01 09:43:21;;;;;;;49.90;34.67;;;;;;;;;;6229059;28;20229;-65
2022/01/01 09:46:44;;;;;;;61.47;34.17;;;;;;;;;;6225807;28;20240;-65
2022/01/01 09:50:05;;;;;;;47.73;33.77;;;;;;;;;;6229682;28;20669;-65
2022/01/01 09:53:28;;;;;;;53.20;35.77;;;;;;;;;;6230776;28;20229;-64
2022/01/01 09:56:48;;;;;;;60.57;37.47;;;;;;;;;;6226052;28;20560;-65
2022/01/01 10:00:10;;;;;;;53.60;38.90;;;;;;;;;;6233929;28;20224;-64
2022/01/01 10:03:34;;;;;;;65.00;39.37;;;;;;;;;;6222568;28;20335;-65
2022/01/01 10:07:01;;;;;;;59.13;40.57;;;;;;;;;;6235488;28;20610;-64
2022/01/01 10:10:25;;;;;;;64.03;40.67;;;;;;;;;;6223049;28;20244;-64
2022/01/01 10:13:45;;;;;;;65.10;44.43;;;;;;;;;;6231225;28;20274;-64
2022/01/01 10:17:13;;;;;;;62.70;41.63;;;;;;;;;;6232416;28;20324;-65
2022/01/01 10:20:35;;;;;;;65.57;42.83;;;;;;;;;;6222746;28;20228;-63
2022/01/01 10:23:57;;;;;;;69.53;45.83;;;;;;;;;;6227414;28;20253;-64
2022/01/01 10:30:57;;;;;;;64.97;45.43;;;;;;;;;;6225090;28;20228;-65
2022/01/01 10:34:19;;;;;;;66.37;46.90;;;;;;;;;;6226204;28;20517;-64
2022/01/01 10:37:41;;;;;;;77.13;45.93;;;;;;;;;;6232236;28;20232;-65
2022/01/01 10:41:05;;;;;;;69.20;46.90;;;;;;;;;;6228911;28;20232;-65
2022/01/01 10:44:33;;;;;;;65.10;46.93;;;;;;;;;;6230158;28;20608;-64
2022/01/01 10:48:03;;;;;;;64.10;44.53;;;;;;;;;;6228624;28;20232;-65
2022/01/01 10:51:25;;;;;;;61.13;44.23;;;;;;;;;;6221877;28;20232;-65
2022/01/01 10:54:49;;;;;;;61.63;44.13;;;;;;;;;;6220374;28;20236;-64
2022/01/01 10:58:16;;;;;;;56.70;40.57;;;;;;;;;;6229952;28;20236;-64
2022/01/01 11:01:44;;;;;;;63.57;41.23;;;;;;;;;;6230319;28;20430;-65
2022/01/01 11:05:05;;;;;;;64.03;41.07;;;;;;;;;;6228788;28;20311;-64
2022/01/01 11:08:25;;;;;;;55.87;37.17;;;;;;;;;;6226760;28;20319;-65
2022/01/01 11:11:47;;;;;;;52.50;36.13;;;;;;;;;;6227249;28;20319;-65
2022/01/01 11:15:09;;;;;;;45.87;35.70;;;;;;;;;;6230232;28;20224;-65
2022/01/01 11:18:32;;;;;;;57.20;35.33;;;;;;;;;;6227172;28;20237;-64
2022/01/01 11:21:53;;;;;;;43.87;31.90;;;;;;;;;;6225622;28;20511;-64
2022/01/01 11:25:13;;;;;;;46.57;30.33;;;;;;;;;;6222027;28;20237;-64
2022/01/01 11:28:34;;;;;;;39.97;28.57;;;;;;;;;;6226524;28;20228;-63
2022/01/01 11:31:55;;;;;;;38.10;28.93;;;;;;;;;;6241737;28;20228;-64
2022/01/01 11:35:19;;;;;;;34.67;26.60;;;;;;;;;;6224309;28;20249;-64
2022/01/01 11:38:39;;;;;;;39.03;28.80;;;;;;;;;;6226808;28;20224;-63
2022/01/01 11:42:08;;;;;;;39.43;30.23;;;;;;;;;;6234546;28;20224;-64
2022/01/01 11:45:43;;;;;;;35.07;29.83;;;;;;;;;;6233159;28;20232;-65
2022/01/01 11:49:04;;;;;;;43.07;30.03;;;;;;;;;;6223420;28;20232;-65
2022/01/01 11:52:40;;;;;;;41.87;31.53;;;;;;;;;;6215391;28;20626;-64
2022/01/01 11:56:04;;;;;;;35.17;25.97;;;;;;;;;;6220574;28;20232;-65
2022/01/01 11:59:26;;;;;;;41.97;27.10;;;;;;;;;;6226765;28;20819;-64
2022/01/01 12:02:49;;;;;;;36.50;24.73;;;;;;;;;;6222928;28;20237;-64
2022/01/01 12:06:09;;;;;;;33.40;25.20;;;;;;;;;;6215279;28;20225;-64
2022/01/01 12:09:47;;;;;;;36.60;24.73;;;;;;;;;;6228414;28;20228;-63
2022/01/01 12:13:09;;;;;;;38.07;23.70;;;;;;;;;;6220512;28;20232;-63
2022/01/01 12:16:30;;;;;;;29.90;24.47;;;;;;;;;;6225782;28;20256;-64
2022/01/01 12:19:54;;;;;;;33.17;24.50;;;;;;;;;;6224352;28;20315;-64
2022/01/01 12:23:16;;;;;;;31.47;22.97;;;;;;;;;;6224962;28;20629;-64
2022/01/01 12:26:38;;;;;;;32.03;23.03;;;;;;;;;;6225801;28;20225;-63
2022/01/01 12:30:04;;;;;;;39.43;24.60;;;;;;;;;;6230431;28;20232;-64
2022/01/01 12:33:26;;;;;;;34.97;25.87;;;;;;;;;;6228594;28;20610;-64
2022/01/01 12:36:50;;;;;;;36.20;27.10;;;;;;;;;;6226267;28;20240;-64
2022/01/01 12:40:12;;;;;;;35.40;23.60;;;;;;;;;;6218756;28;21286;-64
2022/01/01 12:43:41;;;;;;;39.10;26.13;;;;;;;;;;6231942;28;20296;-64
2022/01/01 12:47:01;;;;;;;30.73;24.47;;;;;;;;;;6223220;28;20606;-63
2022/01/01 12:50:24;;;;;;;45.47;28.53;;;;;;;;;;6224342;28;20236;-63
2022/01/01 12:53:44;;;;;;;37.20;27.33;;;;;;;;;;6232121;28;20321;-63
2022/01/01 12:57:05;;;;;;;37.40;30.23;;;;;;;;;;6228481;28;20229;-64
2022/01/01 13:00:27;;;;;;;43.73;33.37;;;;;;;;;;6216808;28;20240;-64
2022/01/01 13:03:50;;;;;;;41.60;33.17;;;;;;;;;;6229854;28;20228;-65
2022/01/01 13:07:11;;;;;;;46.57;33.47;;;;;;;;;;6227445;28;20614;-64
2022/01/01 13:10:33;;;;;;;50.13;34.43;;;;;;;;;;6227820;28;20255;-63
2022/01/01 13:13:53;;;;;;;43.83;33.07;;;;;;;;;;6230772;28;20244;-64
2022/01/01 13:17:15;;;;;;;42.97;33.37;;;;;;;;;;6225622;28;20696;-64
2022/01/01 13:20:36;;;;;;;43.90;34.00;;;;;;;;;;6216379;28;20237;-64
2022/01/01 13:23:56;;;;;;;43.67;31.03;;;;;;;;;;6229247;28;20232;-64
2022/01/01 13:27:16;;;;;;;42.93;33.13;;;;;;;;;;6227471;28;20781;-64
2022/01/01 13:30:37;;;;;;;43.00;31.27;;;;;;;;;;6226666;28;20232;-64
2022/01/01 13:33:59;;;;;;;38.67;28.83;;;;;;;;;;6243084;28;20231;-63
2022/01/01 13:37:23;;;;;;;42.60;31.50;;;;;;;;;;6238945;28;20249;-64
2022/01/01 13:40:45;;;;;;;41.47;31.13;;;;;;;;;;6243358;28;20244;-65
2022/01/01 13:44:22;;;;;;;40.60;30.40;;;;;;;;;;6238385;28;20240;-64
2022/01/01 13:47:44;;;;;;;39.80;29.13;;;;;;;;;;6221759;28;20254;-64
2022/01/01 13:51:07;;;;;;;35.43;26.40;;;;;;;;;;6239464;28;20231;-64
2022/01/01 13:54:27;;;;;;;47.57;30.93;;;;;;;;;;6224005;28;20236;-64
2022/01/01 13:57:52;;;;;;;32.67;27.00;;;;;;;;;;6233636;28;20233;-64
2022/01/01 14:01:14;;;;;;;40.73;27.33;;;;;;;;;;6214262;28;20232;-64
2022/01/01 14:04:35;;;;;;;37.83;26.70;;;;;;;;;;6225082;28;20866;-63
2022/01/01 14:08:13;;;;;;;34.63;27.77;;;;;;;;;;6221563;28;22045;-63
2022/01/01 14:11:35;;;;;;;37.43;26.83;;;;;;;;;;6213853;28;21060;-63
2022/01/01 14:15:01;;;;;;;32.43;27.27;;;;;;;;;;6215447;28;20232;-64
2022/01/01 14:18:26;;;;;;;33.67;26.67;;;;;;;;;;6215890;28;20233;-63
2022/01/01 14:21:49;;;;;;;38.63;29.07;;;;;;;;;;6208723;28;20237;-64
2022/01/01 14:25:13;;;;;;;34.70;26.97;;;;;;;;;;6207524;28;20241;-64
2022/01/01 14:28:34;;;;;;;36.73;28.00;;;;;;;;;;6218592;28;20233;-64
2022/01/01 14:31:55;;;;;;;33.73;23.93;;;;;;;;;;6213362;28;20240;-64
2022/01/01 14:35:15;;;;;;;33.13;28.23;;;;;;;;;;6211371;28;22406;-65
2022/01/01 14:38:36;;;;;;;37.33;25.50;;;;;;;;;;6211086;28;20240;-63
2022/01/01 14:41:58;;;;;;;36.20;27.10;;;;;;;;;;6213477;28;20330;-64
2022/01/01 14:45:19;;;;;;;34.20;26.43;;;;;;;;;;6216889;28;20236;-64
2022/01/01 14:48:42;;;;;;;27.30;22.60;;;;;;;;;;6221536;28;20268;-64
2022/01/01 14:52:08;;;;;;;33.03;25.17;;;;;;;;;;6219097;28;20252;-64
2022/01/01 14:55:38;;;;;;;31.23;22.93;;;;;;;;;;6210191;28;20256;-61
2022/01/01 14:59:03;;;;;;;33.40;24.47;;;;;;;;;;6214452;28;20260;-61
2022/01/01 15:02:24;;;;;;;33.40;26.03;;;;;;;;;;6207380;28;20232;-61
2022/01/01 15:05:44;;;;;;;30.10;23.00;;;;;;;;;;6212435;28;20233;-62
2022/01/01 15:09:05;;;;;;;32.40;25.63;;;;;;;;;;6222726;28;20225;-61
2022/01/01 15:12:26;;;;;;;33.47;25.47;;;;;;;;;;6218241;28;20236;-61
2022/01/01 15:15:48;;;;;;;34.43;24.87;;;;;;;;;;6220424;28;20224;-62
2022/01/01 15:19:09;;;;;;;37.63;25.13;;;;;;;;;;6239552;28;20227;-61
2022/01/01 15:22:34;;;;;;;31.40;24.63;;;;;;;;;;6234725;28;20588;-61
2022/01/01 15:25:57;;;;;;;37.13;25.47;;;;;;;;;;6220823;28;20622;-60
2022/01/01 15:29:28;;;;;;;30.50;25.40;;;;;;;;;;6217809;28;20689;-63
2022/01/01 15:33:15;;;;;;;33.83;25.47;;;;;;;;;;6196258;28;20228;-63
2022/01/01 15:36:40;;;;;;;34.53;25.30;;;;;;;;;;6199833;28;20228;-64
2022/01/01 15:40:05;;;;;;;32.90;25.00;;;;;;;;;;6216756;28;20600;-64
2022/01/01 15:43:26;;;;;;;31.43;23.13;;;;;;;;;;6221434;28;20237;-63
2022/01/01 15:46:48;;;;;;;29.50;25.07;;;;;;;;;;6212410;28;20288;-65
2022/01/01 15:50:10;;;;;;;27.57;22.37;;;;;;;;;;6216130;28;20236;-64
2022/01/01 15:53:31;;;;;;;28.50;23.13;;;;;;;;;;6216644;28;20256;-65
2022/01/01 15:56:55;;;;;;;32.53;24.73;;;;;;;;;;6210741;28;20359;-63
2022/01/01 16:00:16;;;;;;;30.20;23.33;;;;;;;;;;6214252;28;20224;-64
2022/01/01 16:03:44;;;;;;;31.73;22.73;;;;;;;;;;6213575;28;20241;-64
2022/01/01 16:07:07;;;;;;;29.13;25.80;;;;;;;;;;6213981;28;20239;-65
2022/01/01 16:10:29;;;;;;;29.63;23.87;;;;;;;;;;6215136;28;21243;-64
2022/01/01 16:13:53;;;;;;;27.47;22.20;;;;;;;;;;6216459;28;20224;-63
2022/01/01 16:17:14;;;;;;;32.80;22.67;;;;;;;;;;6202469;28;21193;-65
2022/01/01 16:20:35;;;;;;;25.13;22.07;;;;;;;;;;6212221;28;20216;-63
2022/01/01 16:23:57;;;;;;;29.37;21.17;;;;;;;;;;6212969;28;20240;-65
2022/01/01 16:27:17;;;;;;;30.00;21.23;;;;;;;;;;6217189;28;21085;-65
2022/01/01 16:30:39;;;;;;;26.17;21.63;;;;;;;;;;6213167;28;20225;-65
2022/01/01 16:34:00;;;;;;;30.57;21.93;;;;;;;;;;6211930;28;20263;-65
2022/01/01 16:37:20;;;;;;;27.93;20.07;;;;;;;;;;6235119;28;20232;-64
2022/01/01 16:40:48;;;;;;;26.40;19.73;;;;;;;;;;6219540;28;20236;-64
2022/01/01 16:44:13;;;;;;;28.60;22.20;;;;;;;;;;6210794;28;20320;-64
2022/01/01 16:47:36;;;;;;;28.67;21.77;;;;;;;;;;6210211;28;20518;-64
2022/01/01 16:50:57;;;;;;;26.57;20.60;;;;;;;;;;6213359;28;20252;-65
2022/01/01 16:54:19;;;;;;;21.80;19.33;;;;;;;;;;6226906;28;20220;-65
2022/01/01 16:57:42;;;;;;;25.70;18.90;;;;;;;;;;6229946;28;20331;-65
2022/01/01 17:01:04;;;;;;;24.00;17.97;;;;;;;;;;6226484;28;20232;-65
2022/01/01 17:04:29;;;;;;;20.87;18.67;;;;;;;;;;6229137;28;20236;-64
2022/01/01 17:07:50;;;;;;;25.57;14.67;;;;;;;;;;6231720;28;22146;-64
2022/01/01 17:11:12;;;;;;;20.67;14.53;;;;;;;;;;6221100;28;20609;-65
2022/01/01 17:14:34;;;;;;;19.70;14.87;;;;;;;;;;6228460;28;20233;-64
2022/01/01 17:18:07;;;;;;;11.77;10.20;;;;;;;;;;6230529;28;20220;-64
2022/01/01 17:21:34;;;;;;;12.07;9.73;;;;;;;;;;6233567;28;20244;-65
2022/01/01 17:24:56;;;;;;;12.67;9.77;;;;;;;;;;6224982;28;20236;-65
2022/01/01 17:28:22;;;;;;;10.07;8.43;;;;;;;;;;6215684;28;20236;-64
2022/01/01 17:31:44;;;;;;;10.97;8.73;;;;;;;;;;6207244;28;20236;-65
2022/01/01 17:35:22;;;;;;;13.03;9.87;;;;;;;;;;6211486;28;20236;-65
2022/01/01 17:42:28;;;;;;;58.05;52.13;;;;;;;;;;6210011;28;21168;-66
2022/01/01 17:45:50;;;;;;;11.53;10.30;;;;;;;;;;6206777;28;20268;-63
2022/01/01 17:49:15;;;;;;;143.37;132.00;;;;;;;;;;6217945;28;20599;-62
2022/01/01 17:52:37;;;;;;;320.93;292.83;;;;;;;;;;6230703;28;20248;-65
2022/01/01 17:55:58;;;;;;;222.07;204.63;;;;;;;;;;6224590;28;20319;-68
2022/01/01 17:59:18;;;;;;;15.70;14.07;;;;;;;;;;6224795;28;20258;-65
2022/01/01 18:02:41;;;;;;;8.80;6.43;;;;;;;;;;6232949;28;20228;-64
2022/01/01 18:06:05;;;;;;;11.30;6.67;;;;;;;;;;6231542;28;20323;-65
2022/01/01 18:09:27;;;;;;;10.00;6.90;;;;;;;;;;6233387;28;20229;-65
2022/01/01 18:12:51;;;;;;;8.70;6.13;;;;;;;;;;6232318;28;20237;-66
2022/01/01 18:16:12;;;;;;;12.27;6.87;;;;;;;;;;6232153;28;20256;-65
2022/01/01 18:19:34;;;;;;;9.47;6.20;;;;;;;;;;6230697;28;20257;-65
2022/01/01 18:22:57;;;;;;;11.17;5.63;;;;;;;;;;6230871;28;20256;-65
2022/01/01 18:26:18;;;;;;;11.57;5.90;;;;;;;;;;6234106;28;20236;-65
2022/01/01 18:29:39;;;;;;;8.47;5.43;;;;;;;;;;6233935;28;20236;-65
2022/01/01 18:32:59;;;;;;;9.27;5.47;;;;;;;;;;6263421;28;20311;-65
2022/01/01 18:36:20;;;;;;;11.00;6.13;;;;;;;;;;6252498;28;20220;-65
2022/01/01 18:39:42;;;;;;;9.37;5.67;;;;;;;;;;6255563;28;20572;-65
2022/01/01 18:43:03;;;;;;;9.77;6.03;;;;;;;;;;6230776;28;20217;-65
2022/01/01 18:46:26;;;;;;;10.97;5.93;;;;;;;;;;6241636;28;20505;-66
2022/01/01 18:49:47;;;;;;;11.50;5.80;;;;;;;;;;6232253;28;20240;-65
2022/01/01 18:53:09;;;;;;;8.53;5.23;;;;;;;;;;6255007;28;20224;-66
2022/01/01 18:56:33;;;;;;;8.33;5.77;;;;;;;;;;6226966;28;20228;-64
2022/01/01 18:59:55;;;;;;;7.63;5.40;;;;;;;;;;6223022;28;20597;-66
2022/01/01 19:03:20;;;;;;;8.20;5.03;;;;;;;;;;6220501;28;20228;-65
2022/01/01 19:06:42;;;;;;;7.63;3.93;;;;;;;;;;6227612;28;20784;-65
2022/01/01 19:10:04;;;;;;;7.93;3.87;;;;;;;;;;6226070;28;20236;-64
2022/01/01 19:13:27;;;;;;;10.03;4.63;;;;;;;;;;6231442;28;20621;-64
2022/01/01 19:16:47;;;;;;;9.90;5.43;;;;;;;;;;6226652;28;20566;-64
2022/01/01 19:20:08;;;;;;;8.33;4.17;;;;;;;;;;6253995;28;20231;-64
2022/01/01 19:23:29;;;;;;;8.73;4.10;;;;;;;;;;6251176;28;20326;-65
2022/01/01 19:26:52;;;;;;;5.17;3.50;;;;;;;;;;6234457;28;20233;-65
2022/01/01 19:30:14;;;;;;;8.57;4.73;;;;;;;;;;6230300;28;20685;-64
2022/01/01 19:33:36;;;;;;;9.80;4.33;;;;;;;;;;6235060;28;20626;-65
2022/01/01 19:36:57;;;;;;;8.43;4.60;;;;;;;;;;6257229;28;20235;-64
2022/01/01 19:40:18;;;;;;;6.00;3.97;;;;;;;;;;6260015;28;20232;-64
2022/01/01 19:43:46;;;;;;;6.80;3.67;;;;;;;;;;6255910;28;20227;-66
2022/01/01 19:47:14;;;;;;;5.67;3.70;;;;;;;;;;6254162;28;20235;-64